Time;durP1;ratioP1;P1;durP2;ratioP2;P2;SDS_P1;SDS_P2;PMS_P1;PMS_P2;Temp;Humidity;BMP_temperature;BMP_pressure;BME280_temperature;BME280_humidity;BME280_pressure;Samples;Min_cycle;Max_cycle;Signal;HPM_P1;HPM_P2
2020/12/13 00:01:27;;;;;;;70.52;28.07;;;;;;;-2.74;91.17;100196.65;1733609;82;22201;-67
2020/12/13 00:03:54;;;;;;;55.88;22.48;;;;;;;-2.73;91.32;100194.54;1733648;81;21185;-66
2020/12/13 00:06:33;;;;;;;65.00;25.77;;;;;;;-2.73;91.30;100200.13;1733659;82;21208;-67
2020/12/13 00:09:01;;;;;;;81.13;36.37;;;;;;;-2.69;91.32;100201.89;1733268;81;21181;-65
2020/12/13 00:11:29;;;;;;;63.23;26.52;;;;;;;-2.68;91.40;100202.36;1733544;82;21632;-67
2020/12/13 00:13:59;;;;;;;;;;;;;;;-2.68;91.41;100208.80;1736118;82;21993;-66
2020/12/13 00:16:27;;;;;;;61.93;25.70;;;;;;;-2.66;91.54;100210.56;1783467;79;20231;-68
2020/12/13 00:18:55;;;;;;;63.60;25.40;;;;;;;-2.67;91.58;100207.94;1783297;80;21206;-67
2020/12/13 00:21:26;;;;;;;45.17;19.23;;;;;;;-2.65;91.56;100209.70;1783338;80;21558;-67
2020/12/13 00:23:57;;;;;;;60.10;25.93;;;;;;;-2.64;91.64;100213.17;1783232;80;21175;-64
2020/12/13 00:26:24;;;;;;;54.63;22.57;;;;;;;-2.62;91.65;100212.78;1783457;80;21605;-68
2020/12/13 00:28:54;;;;;;;53.00;22.13;;;;;;;-2.59;91.64;100221.85;1783357;80;21385;-68
2020/12/13 00:31:21;;;;;;;61.93;25.43;;;;;;;-2.57;91.67;100221.46;1769606;79;22200;-68
2020/12/13 00:33:50;;;;;;;67.00;26.17;;;;;;;-2.55;91.71;100223.65;1752270;81;21122;-67
2020/12/13 00:36:19;;;;;;;66.90;25.40;;;;;;;-2.56;91.75;100219.31;1752479;81;22043;-68
2020/12/13 00:38:47;;;;;;;57.35;25.30;;;;;;;-2.54;91.72;100220.22;1752384;81;21628;-67
2020/12/13 00:41:15;;;;;;;50.38;22.10;;;;;;;-2.52;91.78;100222.83;1752446;81;21169;-66
2020/12/13 00:43:43;;;;;;;56.67;24.43;;;;;;;-2.50;91.79;100212.12;1752311;81;21398;-66
2020/12/13 00:46:10;;;;;;;58.57;25.90;;;;;;;-2.48;91.82;100215.17;1752353;81;21129;-69
2020/12/13 00:48:39;;;;;;;56.57;24.60;;;;;;;-2.47;91.90;100210.45;1752337;81;21200;-68
2020/12/13 00:51:07;;;;;;;53.68;24.77;;;;;;;-2.46;91.90;100208.33;1749643;81;21653;-67
2020/12/13 00:53:36;;;;;;;54.30;23.67;;;;;;;-2.46;91.87;100212.20;1752261;81;21094;-68
2020/12/13 00:56:04;;;;;;;62.47;24.53;;;;;;;-2.46;91.92;100213.49;1752313;81;21198;-67
2020/12/13 00:58:33;;;;;;;55.52;24.75;;;;;;;-2.43;91.91;100210.95;1752194;81;21146;-68
2020/12/13 01:01:00;;;;;;;53.23;22.10;;;;;;;-2.41;91.94;100207.98;1752107;81;21826;-66
2020/12/13 01:03:28;;;;;;;52.55;24.30;;;;;;;-2.41;91.97;100205.41;1752210;81;21162;-65
2020/12/13 01:05:56;;;;;;;53.90;23.00;;;;;;;-2.40;92.01;100201.97;1752326;81;21592;-68
2020/12/13 01:08:25;;;;;;;48.28;22.37;;;;;;;-2.35;92.01;100199.07;1753231;81;21379;-69
2020/12/13 01:10:54;;;;;;;59.15;25.27;;;;;;;-2.35;92.01;100188.75;1755765;81;21593;-68
2020/12/13 01:13:22;;;;;;;53.73;23.70;;;;;;;-2.33;92.10;100192.63;1755714;81;21403;-67
2020/12/13 01:15:51;;;;;;;46.83;21.97;;;;;;;-2.30;92.09;100191.80;1755609;81;22165;-66
2020/12/13 01:18:20;;;;;;;49.48;22.40;;;;;;;-2.30;92.13;100190.52;1755768;81;21569;-67
2020/12/13 01:20:48;;;;;;;51.10;21.05;;;;;;;-2.28;92.16;100191.41;1755664;81;22011;-68
2020/12/13 01:25:31;;;;;;;46.03;21.17;;;;;;;-2.20;92.24;100187.25;1775434;79;22568;-68
2020/12/13 01:27:58;;;;;;;46.95;21.30;;;;;;;-2.25;92.20;100186.31;1747789;82;21144;-66
2020/12/13 01:30:27;;;;;;;44.00;20.83;;;;;;;-2.21;92.23;100183.81;1733488;82;22247;-67
2020/12/13 01:32:55;;;;;;;47.98;21.40;;;;;;;-2.19;92.23;100184.67;1717901;83;21204;-68
2020/12/13 01:35:25;;;;;;;42.75;19.67;;;;;;;-2.16;92.32;100181.30;1718129;83;21595;-67
2020/12/13 01:37:53;;;;;;;39.80;19.42;;;;;;;-2.15;92.23;100183.02;1717928;83;21206;-66
2020/12/13 01:40:20;;;;;;;38.28;18.27;;;;;;;-2.11;92.23;100182.23;1718203;83;21586;-67
2020/12/13 01:42:49;;;;;;;41.05;20.00;;;;;;;-2.11;92.25;100182.23;1717968;83;21275;-69
2020/12/13 01:45:18;;;;;;;38.67;18.73;;;;;;;-2.10;92.26;100180.08;1718200;83;21615;-68
2020/12/13 01:47:50;;;;;;;37.38;17.98;;;;;;;-2.05;92.22;100172.41;1718062;82;21716;-68
2020/12/13 01:50:36;;;;;;;42.05;19.67;;;;;;;-2.02;92.19;100175.05;1718218;83;21211;-69
2020/12/13 01:52:48;;;;;;;42.93;21.70;;;;;;;-2.03;92.23;100170.29;1714986;82;21138;-70
2020/12/13 01:55:19;;;;;;;37.88;20.40;;;;;;;-1.99;92.20;100175.09;1690223;83;21468;-68
2020/12/13 01:57:49;;;;;;;38.30;19.85;;;;;;;-1.98;92.10;100176.41;1718154;83;21216;-69
2020/12/13 02:00:17;;;;;;;;;;;;;;;-1.99;92.14;100165.63;1720372;83;21699;-69
2020/12/13 02:02:55;;;;;;;40.67;19.30;;;;;;;-1.96;92.12;100173.40;1703796;84;20270;-69
2020/12/13 02:05:23;;;;;;;42.40;21.07;;;;;;;-1.94;92.10;100169.13;1703953;84;21536;-69
2020/12/13 02:07:52;;;;;;;42.70;19.65;;;;;;;-1.95;92.13;100177.73;1703746;83;21428;-68
2020/12/13 02:10:20;;;;;;;38.40;19.52;;;;;;;-1.95;92.16;100171.28;1703755;84;21196;-70
2020/12/13 02:12:48;;;;;;;38.67;18.80;;;;;;;-1.93;92.16;100167.02;1703709;84;21617;-69
2020/12/13 02:15:16;;;;;;;48.87;22.37;;;;;;;-1.90;92.12;100163.60;1703644;84;21152;-68
2020/12/13 02:17:43;;;;;;;43.95;22.17;;;;;;;-1.91;92.15;100170.48;1703824;84;21192;-68
2020/12/13 02:20:13;;;;;;;38.80;18.98;;;;;;;-1.88;92.10;100175.25;1703821;84;22296;-68
2020/12/13 02:22:48;;;;;;;53.10;23.03;;;;;;;-1.87;92.06;100171.38;1703863;83;21199;-68
2020/12/13 02:25:21;;;;;;;47.25;21.42;;;;;;;-1.84;92.08;100177.00;1698156;82;21628;-66
2020/12/13 02:27:50;;;;;;;48.48;21.60;;;;;;;-1.84;92.15;100177.00;1695225;84;21223;-68
2020/12/13 02:30:18;;;;;;;43.80;20.57;;;;;;;-1.81;92.21;100175.78;1681863;85;21614;-68
2020/12/13 02:32:47;;;;;;;48.00;22.87;;;;;;;-1.81;92.20;100170.61;1696458;84;21216;-68
2020/12/13 02:35:14;;;;;;;48.38;23.10;;;;;;;-1.85;92.26;100165.81;1696126;84;21196;-66
2020/12/13 02:37:42;;;;;;;49.18;21.37;;;;;;;-1.80;92.29;100170.61;1695841;84;21197;-67
2020/12/13 02:40:10;;;;;;;45.92;21.55;;;;;;;-1.75;92.26;100170.67;1695957;84;21184;-65
2020/12/13 02:42:38;;;;;;;51.40;23.20;;;;;;;-1.75;92.40;100176.73;1701037;82;21120;-65
2020/12/13 02:45:06;;;;;;;47.78;20.68;;;;;;;-1.74;92.43;100175.02;1735059;82;21216;-66
2020/12/13 02:47:34;;;;;;;45.33;21.23;;;;;;;-1.71;92.41;100175.04;1734737;81;21662;-67
2020/12/13 02:50:03;;;;;;;42.58;20.80;;;;;;;-1.68;92.36;100164.75;1734743;82;21183;-66
2020/12/13 02:52:31;;;;;;;47.15;22.85;;;;;;;-1.66;92.44;100160.47;1734966;81;21564;-66
2020/12/13 02:54:59;;;;;;;56.13;22.82;;;;;;;-1.65;92.47;100167.82;1734790;82;21647;-67
2020/12/13 02:57:27;;;;;;;44.73;20.68;;;;;;;-1.65;92.52;100160.93;1697750;82;21211;-67
2020/12/13 02:59:55;;;;;;;37.98;18.00;;;;;;;-1.63;92.55;100156.66;1662868;84;21160;-68
2020/12/13 03:02:23;;;;;;;45.33;20.68;;;;;;;-1.62;92.60;100166.13;1683996;83;21199;-68
2020/12/13 03:04:52;;;;;;;46.00;20.05;;;;;;;-1.61;92.58;100173.05;1683745;85;21187;-68
2020/12/13 03:07:20;;;;;;;46.95;20.88;;;;;;;-1.59;92.55;100176.48;1684137;85;21194;-68
2020/12/13 03:09:48;;;;;;;42.17;20.97;;;;;;;-1.59;92.57;100164.86;1683831;85;21395;-68
2020/12/13 03:12:16;;;;;;;47.83;22.22;;;;;;;-1.57;92.64;100159.73;1683981;85;21195;-67
2020/12/13 03:14:44;;;;;;;43.92;20.40;;;;;;;-1.58;92.75;100167.91;1683997;83;21693;-66
2020/12/13 03:17:12;;;;;;;39.10;19.37;;;;;;;-1.56;92.74;100173.96;1683905;84;21143;-68
2020/12/13 03:19:40;;;;;;;42.03;21.65;;;;;;;-1.55;92.69;100182.14;1684121;85;21627;-67
2020/12/13 03:22:09;;;;;;;48.33;22.17;;;;;;;-1.54;92.81;100183.89;1684050;85;21353;-66
2020/12/13 03:24:36;;;;;;;43.92;21.80;;;;;;;-1.53;92.86;100174.42;1685838;84;21178;-66
2020/12/13 03:27:06;;;;;;;44.73;21.48;;;;;;;-1.51;92.88;100178.75;1689426;84;21606;-69
2020/12/13 03:32:10;;;;;;;45.98;24.40;;;;;;;-1.41;92.89;100183.61;1753376;77;28149;-69
2020/12/13 03:34:39;;;;;;;46.98;22.02;;;;;;;-1.38;92.79;100178.89;1725565;83;21171;-68
2020/12/13 03:37:07;;;;;;;41.98;21.02;;;;;;;-1.32;92.56;100177.26;1725419;83;21364;-68
2020/12/13 03:39:35;;;;;;;50.40;23.50;;;;;;;-1.29;92.53;100174.73;1725260;83;21211;-67
2020/12/13 03:42:03;;;;;;;48.75;23.10;;;;;;;-1.33;92.57;100166.92;1725203;83;21190;-67
2020/12/13 03:44:31;;;;;;;47.30;23.27;;;;;;;-1.30;92.68;100170.83;1725162;83;21281;-68
2020/12/13 03:46:59;;;;;;;46.13;19.82;;;;;;;-1.26;92.68;100168.73;1710092;83;21203;-68
2020/12/13 03:49:27;;;;;;;54.03;22.77;;;;;;;-1.24;92.69;100167.03;1696496;84;22627;-68
2020/12/13 03:51:55;;;;;;;49.03;23.80;;;;;;;-1.24;92.84;100158.39;1696129;83;21199;-69
2020/12/13 03:54:23;;;;;;;53.00;24.90;;;;;;;-1.24;92.96;100161.86;1696547;84;21655;-70
2020/12/13 03:56:51;;;;;;;38.40;19.75;;;;;;;-1.21;92.99;100150.26;1696445;84;22225;-67
2020/12/13 03:59:19;;;;;;;47.30;22.55;;;;;;;-1.19;93.00;100147.70;1696418;84;21240;-67
2020/12/13 04:01:48;;;;;;;49.88;23.27;;;;;;;-1.15;93.00;100145.56;1732955;82;22106;-68
2020/12/13 04:04:16;;;;;;;51.28;24.52;;;;;;;-1.13;93.13;100147.34;1746211;82;21178;-67
2020/12/13 04:06:45;;;;;;;50.98;22.67;;;;;;;-1.13;93.26;100153.81;1746084;82;21198;-67
2020/12/13 04:09:22;;;;;;;49.97;24.23;;;;;;;-1.03;93.25;100150.89;1846239;76;22687;-69
2020/12/13 04:11:50;;;;;;;44.63;22.87;;;;;;;-1.04;93.27;100145.69;1816086;79;21194;-67
2020/12/13 04:14:18;;;;;;;50.33;24.65;;;;;;;-1.03;93.32;100148.30;1798476;78;21251;-67
2020/12/13 04:16:47;;;;;;;58.70;26.20;;;;;;;-1.01;93.38;100153.06;1783744;80;21083;-69
2020/12/13 04:19:15;;;;;;;52.17;24.18;;;;;;;-0.98;93.47;100158.69;1784049;80;21131;-68
2020/12/13 04:21:44;;;;;;;48.28;22.52;;;;;;;-0.94;93.38;100155.29;1783932;80;21573;-68
2020/12/13 04:24:12;;;;;;;43.38;21.77;;;;;;;-0.93;93.42;100165.63;1784216;80;21550;-67
2020/12/13 04:26:40;;;;;;;43.63;20.12;;;;;;;-0.90;93.46;100163.50;1784046;79;21465;-73
2020/12/13 04:29:08;;;;;;;52.10;23.98;;;;;;;-0.88;93.59;100155.33;1783818;79;21957;-66
2020/12/13 04:31:36;;;;;;;51.18;23.92;;;;;;;-0.84;93.59;100164.86;1784108;79;21179;-69
2020/12/13 04:34:06;;;;;;;52.43;23.87;;;;;;;-0.80;93.58;100170.50;1784075;80;21170;-68
2020/12/13 04:36:33;;;;;;;43.73;20.23;;;;;;;-0.78;93.56;100168.80;1784174;80;21127;-68
2020/12/13 04:39:01;;;;;;;65.37;29.10;;;;;;;-0.75;93.64;100176.58;1784088;80;21383;-68
2020/12/13 04:41:30;;;;;;;62.53;28.85;;;;;;;-0.73;93.77;100167.56;1784046;80;21166;-68
2020/12/13 04:43:58;;;;;;;57.35;26.37;;;;;;;-0.66;93.67;100170.64;1784012;80;21147;-68
2020/12/13 04:46:30;;;;;;;61.00;28.32;;;;;;;-0.64;93.57;100167.20;1754045;80;21178;-69
2020/12/13 04:48:58;;;;;;;57.43;26.77;;;;;;;-0.61;93.56;100166.80;1784069;80;21720;-68
2020/12/13 04:51:27;;;;;;;61.58;26.37;;;;;;;-0.60;93.57;100163.34;1784112;79;21996;-68
2020/12/13 04:54:05;;;;;;;70.52;30.05;;;;;;;-0.56;93.48;100165.97;1783839;79;21191;-67
2020/12/13 04:56:36;;;;;;;69.87;28.90;;;;;;;-0.54;93.47;100167.29;1784044;80;21143;-66
2020/12/13 04:59:05;;;;;;;66.70;27.65;;;;;;;-0.52;93.44;100169.47;1783926;80;21130;-67
2020/12/13 05:01:33;;;;;;;65.75;27.80;;;;;;;-0.51;93.52;100163.42;1757372;80;21604;-69
2020/12/13 05:04:01;;;;;;;66.65;29.50;;;;;;;-0.48;93.43;100172.52;1734749;82;22320;-68
2020/12/13 05:06:30;;;;;;;65.60;28.25;;;;;;;-0.45;93.46;100175.98;1734553;82;21240;-68
2020/12/13 05:08:58;;;;;;;71.57;31.85;;;;;;;-0.43;93.45;100176.02;1738365;81;21447;-69
2020/12/13 05:11:28;;;;;;;71.82;29.70;;;;;;;-0.41;93.45;100173.02;1740029;82;21149;-68
2020/12/13 05:13:56;;;;;;;66.92;28.60;;;;;;;-0.39;93.41;100179.07;1740845;80;21616;-69
2020/12/13 05:16:23;;;;;;;70.57;31.33;;;;;;;-0.35;93.38;100181.23;1755544;81;21326;-67
2020/12/13 05:18:52;;;;;;;68.95;30.02;;;;;;;-0.34;93.35;100179.97;1755456;81;21165;-69
2020/12/13 05:21:24;;;;;;;75.78;33.38;;;;;;;-0.33;93.33;100180.39;1755307;81;21177;-67
2020/12/13 05:23:53;;;;;;;76.42;32.88;;;;;;;-0.33;93.35;100173.92;1755249;81;21173;-67
2020/12/13 05:26:22;;;;;;;75.20;32.15;;;;;;;-0.27;93.27;100177.00;1755089;81;21185;-68
2020/12/13 05:28:52;;;;;;;73.62;29.37;;;;;;;-0.26;93.23;100176.99;1755147;81;22052;-69
2020/12/13 05:31:24;;;;;;;82.82;33.98;;;;;;;-0.27;93.22;100170.09;1755141;81;21205;-69
2020/12/13 05:36:35;;;;;;;67.00;28.13;;;;;;;-0.19;93.15;100175.75;1835444;78;22339;-68
2020/12/13 05:39:03;;;;;;;82.10;33.85;;;;;;;-0.23;93.11;100182.62;1802997;79;21581;-66
2020/12/13 05:41:37;;;;;;;82.20;35.15;;;;;;;-0.22;93.08;100177.47;1807804;79;21607;-67
2020/12/13 05:51:45;;;;;;;86.95;36.63;;;;;;;-0.14;92.92;100183.13;1775869;79;21147;-67
2020/12/13 05:54:25;;;;;;;70.70;30.85;;;;;;;-0.14;92.89;100177.95;1775981;80;22240;-67
2020/12/13 05:57:17;;;;;;;79.50;32.90;;;;;;;-0.12;92.80;100176.23;1775740;80;21048;-67
2020/12/13 05:59:45;;;;;;;63.00;26.68;;;;;;;-0.11;92.74;100177.55;1617443;88;21181;-68
2020/12/13 06:02:14;;;;;;;76.42;31.82;;;;;;;-0.10;92.65;100173.23;1658155;84;21707;-65
2020/12/13 06:04:43;;;;;;;69.47;29.40;;;;;;;-0.09;92.59;100178.84;1633230;86;21195;-68
2020/12/13 06:07:11;;;;;;;59.93;26.52;;;;;;;-0.05;92.53;100181.89;1659852;86;22624;-67
2020/12/13 06:09:41;;;;;;;76.62;32.40;;;;;;;-0.05;92.30;100178.01;1676540;85;21617;-66
2020/12/13 06:12:11;;;;;;;81.70;33.95;;;;;;;-0.04;92.26;100179.33;1676429;85;21138;-66
2020/12/13 06:14:42;;;;;;;67.15;28.70;;;;;;;-0.05;92.17;100189.66;1676377;84;21193;-69
2020/12/13 06:17:10;;;;;;;90.22;33.60;;;;;;;-0.05;92.16;100198.72;1676564;85;21174;-68
2020/12/13 06:19:41;;;;;;;80.17;33.65;;;;;;;-0.05;92.07;100187.07;1672185;85;22541;-66
2020/12/13 06:22:13;;;;;;;69.67;31.42;;;;;;;-0.01;92.00;100199.19;1676580;85;21183;-67
2020/12/13 06:24:48;;;;;;;74.90;30.27;;;;;;;-0.01;91.95;100199.19;1676499;85;21421;-67
2020/12/13 06:27:19;;;;;;;84.72;34.67;;;;;;;0.00;91.96;100199.64;1670103;85;21589;-66
2020/12/13 06:29:48;;;;;;;89.22;36.15;;;;;;;0.00;91.87;100195.76;1676389;84;21764;-68
2020/12/13 06:32:16;;;;;;;92.35;35.95;;;;;;;0.00;91.76;100194.47;1647949;85;22359;-67
2020/12/13 06:34:45;;;;;;;70.95;30.57;;;;;;;0.00;91.82;100195.76;1632975;87;21253;-66
2020/12/13 06:37:14;;;;;;;90.90;36.70;;;;;;;-0.01;91.78;100193.58;1642537;87;21628;-67
2020/12/13 06:39:44;;;;;;;82.08;36.30;;;;;;;0.02;91.69;100197.05;1632966;87;21210;-69
2020/12/13 06:42:28;;;;;;;83.03;35.83;;;;;;;0.07;91.67;100206.59;1835416;78;22390;-67
2020/12/13 06:45:07;;;;;;;89.95;37.73;;;;;;;0.01;91.68;100198.77;1728242;79;21135;-68
2020/12/13 06:47:42;;;;;;;77.90;30.45;;;;;;;0.00;91.75;100202.23;1776040;80;22758;-67
2020/12/13 06:50:24;;;;;;;85.60;34.92;;;;;;;-0.01;91.76;100200.48;1775428;80;21186;-69
2020/12/13 06:52:54;;;;;;;71.10;28.87;;;;;;;0.02;91.70;100194.02;1775706;79;21179;-72
2020/12/13 06:55:34;;;;;;;94.32;36.70;;;;;;;0.02;91.66;100188.84;1774378;80;21439;-67
2020/12/13 06:58:03;;;;;;;97.60;37.10;;;;;;;-0.01;91.67;100177.18;1774253;80;21163;-69
2020/12/13 07:00:50;;;;;;;84.65;32.88;;;;;;;0.03;91.72;100186.70;1720506;80;21216;-70
2020/12/13 07:03:27;;;;;;;69.45;30.05;;;;;;;0.03;91.62;100182.83;1775070;80;21099;-69
2020/12/13 07:05:58;;;;;;;80.28;35.10;;;;;;;0.03;91.63;100180.23;1775783;80;21590;-66
2020/12/13 07:08:27;;;;;;;96.67;38.23;;;;;;;0.01;91.77;100187.13;1775984;80;21634;-68
2020/12/13 07:10:55;;;;;;;72.85;31.15;;;;;;;-0.01;91.83;100190.13;1775525;80;21190;-69
2020/12/13 07:13:25;;;;;;;82.47;36.40;;;;;;;0.02;91.75;100187.55;1746028;80;22247;-68
2020/12/13 07:16:06;;;;;;;87.30;36.73;;;;;;;0.02;91.91;100188.84;1737002;80;21638;-71
2020/12/13 07:18:32;;;;;;;94.28;37.90;;;;;;;0.00;91.92;100189.29;1747634;80;21175;-67
2020/12/13 07:21:00;;;;;;;82.17;34.25;;;;;;;0.00;91.96;100190.58;1751975;79;21516;-69
2020/12/13 07:23:28;;;;;;;73.65;30.72;;;;;;;0.01;91.99;100191.01;1774970;79;21151;-67
2020/12/13 07:25:57;;;;;;;70.97;29.40;;;;;;;0.04;91.93;100194.90;1774644;80;22267;-68
2020/12/13 07:28:27;;;;;;;82.35;35.00;;;;;;;0.03;91.99;100195.77;1774023;80;21123;-66
2020/12/13 07:30:55;;;;;;;70.35;29.90;;;;;;;0.04;92.01;100208.28;1773917;80;21203;-68
2020/12/13 07:33:23;;;;;;;68.92;28.07;;;;;;;0.04;92.01;100207.84;1744104;80;21143;-68
2020/12/13 07:35:52;;;;;;;93.47;37.78;;;;;;;0.03;92.02;100203.54;1773905;80;21159;-67
2020/12/13 07:38:23;;;;;;;83.37;36.77;;;;;;;0.05;92.01;100200.53;1774146;80;22668;-68
2020/12/13 07:40:52;;;;;;;95.80;34.00;;;;;;;0.03;92.13;100200.95;1771104;80;21407;-68
2020/12/13 07:43:23;;;;;;;72.03;32.08;;;;;;;0.01;92.22;100206.55;1763291;81;21168;-68
2020/12/13 07:45:50;;;;;;;77.73;32.17;;;;;;;0.02;92.15;100203.08;1763506;81;21203;-67
2020/12/13 07:48:18;;;;;;;83.65;32.83;;;;;;;0.04;92.17;100202.67;1763354;81;21163;-68
2020/12/13 07:50:48;;;;;;;76.75;34.40;;;;;;;0.06;92.16;100202.69;1765751;79;21197;-68
2020/12/13 07:53:25;;;;;;;95.97;36.05;;;;;;;0.04;92.23;100206.55;1769728;80;21142;-68
2020/12/13 07:55:54;;;;;;;77.95;32.10;;;;;;;0.05;92.26;100199.24;1769995;81;21190;-68
2020/12/13 07:58:21;;;;;;;81.47;36.90;;;;;;;0.07;92.23;100202.71;1770116;80;21828;-68
2020/12/13 08:00:49;;;;;;;80.65;36.98;;;;;;;0.06;92.22;100209.16;1754554;81;21637;-68
2020/12/13 08:03:17;;;;;;;69.77;30.90;;;;;;;0.06;92.20;100214.34;1721382;83;21740;-68
2020/12/13 08:05:47;;;;;;;62.60;28.17;;;;;;;0.07;92.17;100213.07;1727277;83;21166;-69
2020/12/13 08:08:15;;;;;;;81.45;32.67;;;;;;;0.07;92.18;100227.31;1719255;82;21162;-68
2020/12/13 08:10:43;;;;;;;80.12;34.20;;;;;;;0.09;92.20;100219.53;1725747;82;21179;-68
2020/12/13 08:13:10;;;;;;;66.82;28.70;;;;;;;0.03;92.34;100234.61;1708211;82;21645;-69
2020/12/13 08:15:38;;;;;;;82.02;34.95;;;;;;;0.05;92.25;100227.73;1764440;81;21276;-68
2020/12/13 08:18:08;;;;;;;83.40;35.40;;;;;;;0.09;92.24;100238.55;1734443;81;21248;-71
2020/12/13 08:20:39;;;;;;;85.15;37.00;;;;;;;0.10;92.23;100226.03;1757711;79;21179;-69
2020/12/13 08:23:08;;;;;;;81.08;35.52;;;;;;;0.10;92.21;100224.73;1746226;81;21194;-68
2020/12/13 08:25:37;;;;;;;68.40;30.32;;;;;;;0.12;92.11;100234.67;1757812;79;21164;-68
2020/12/13 08:28:05;;;;;;;79.05;34.23;;;;;;;0.12;92.06;100232.09;1746983;79;21683;-68
2020/12/13 08:30:33;;;;;;;85.53;34.33;;;;;;;0.14;92.04;100226.50;1762616;81;21163;-68
2020/12/13 08:33:01;;;;;;;83.85;35.20;;;;;;;0.12;92.03;100219.14;1740671;81;21186;-68
2020/12/13 08:35:32;;;;;;;79.67;34.13;;;;;;;0.14;91.94;100219.16;1746234;79;21193;-68
2020/12/13 08:38:01;;;;;;;83.17;33.88;;;;;;;0.15;91.86;100223.03;1769240;79;21206;-67
2020/12/13 08:40:45;;;;;;;76.25;31.15;;;;;;;0.12;91.87;100220.44;1752651;79;22205;-69
2020/12/13 08:43:22;;;;;;;79.30;35.28;;;;;;;0.12;91.86;100229.50;1760809;79;21175;-68
2020/12/13 08:45:54;;;;;;;80.55;34.23;;;;;;;0.12;91.82;100219.14;1756468;79;21160;-69
2020/12/13 08:48:27;;;;;;;95.70;39.78;;;;;;;0.15;91.84;100218.29;1756209;79;21222;-67
2020/12/13 08:51:08;;;;;;;94.72;38.35;;;;;;;0.13;91.75;100215.68;1762914;79;21432;-68
2020/12/13 08:53:37;;;;;;;101.18;40.67;;;;;;;0.08;91.68;100204.43;1761785;79;21387;-68
2020/12/13 08:56:13;;;;;;;97.55;37.13;;;;;;;0.15;91.57;100210.52;1759575;79;21179;-68
2020/12/13 08:58:52;;;;;;;86.30;35.70;;;;;;;0.15;91.41;100212.67;1764526;79;21583;-68
2020/12/13 09:01:27;;;;;;;88.03;37.93;;;;;;;0.16;91.30;100210.54;1767419;79;21131;-68
2020/12/13 09:03:56;;;;;;;79.37;31.57;;;;;;;0.15;91.23;100206.20;1761301;79;21119;-68
2020/12/13 09:06:31;;;;;;;80.67;34.20;;;;;;;0.18;91.24;100204.05;1751489;81;21289;-66
2020/12/13 09:09:13;;;;;;;81.97;35.38;;;;;;;0.21;91.07;100205.39;1761259;79;21157;-70
2020/12/13 09:11:42;;;;;;;75.95;34.30;;;;;;;0.22;90.79;100200.63;1755089;79;21666;-68
2020/12/13 09:14:10;;;;;;;94.65;38.92;;;;;;;0.23;90.76;100202.78;1760471;79;21768;-68
2020/12/13 09:16:38;;;;;;;78.57;34.13;;;;;;;0.23;90.72;100197.20;1736297;79;21175;-68
2020/12/13 09:19:12;;;;;;;84.17;35.30;;;;;;;0.26;90.59;100200.23;1704983;82;21386;-68
2020/12/13 09:21:49;;;;;;;92.62;37.83;;;;;;;0.26;90.42;100191.17;1672406;83;21219;-68
2020/12/13 09:24:20;;;;;;;91.37;40.58;;;;;;;0.27;90.44;100183.83;1693454;82;21158;-67
2020/12/13 09:27:09;;;;;;;90.20;36.55;;;;;;;0.26;90.35;100187.28;1758064;81;21645;-65
2020/12/13 09:29:38;;;;;;;91.32;37.60;;;;;;;0.28;90.29;100170.03;1760429;79;21170;-65
2020/12/13 09:32:09;;;;;;;90.20;39.23;;;;;;;0.27;90.25;100175.62;1764198;79;21374;-66
2020/12/13 09:34:38;;;;;;;113.95;48.42;;;;;;;0.25;90.25;100168.70;1767887;79;21139;-68
2020/12/13 09:37:10;;;;;;;79.47;33.00;;;;;;;0.24;90.27;100169.57;1763710;79;22111;-67
2020/12/13 09:39:38;;;;;;;103.67;44.95;;;;;;;0.27;90.26;100169.58;1761083;79;21168;-67
2020/12/13 09:42:10;;;;;;;73.42;29.67;;;;;;;0.27;90.23;100163.10;1761798;80;21603;-68
2020/12/13 09:44:37;;;;;;;91.90;38.15;;;;;;;0.26;90.17;100173.05;1752877;81;21344;-68
2020/12/13 09:47:07;;;;;;;104.27;43.42;;;;;;;0.24;90.28;100173.45;1736160;80;21189;-67
2020/12/13 09:49:37;;;;;;;84.97;36.90;;;;;;;0.26;90.32;100162.24;1772507;80;21163;-67
2020/12/13 09:52:05;;;;;;;94.50;40.23;;;;;;;0.30;90.27;100172.17;1772319;80;21208;-66
2020/12/13 09:54:33;;;;;;;97.82;42.27;;;;;;;0.29;90.28;100161.39;1772514;80;21167;-67
2020/12/13 09:57:01;;;;;;;104.65;43.35;;;;;;;0.31;90.23;100166.16;1772459;80;21334;-67
2020/12/13 09:59:29;;;;;;;102.42;41.77;;;;;;;0.31;90.26;100162.27;1772391;80;21237;-67
2020/12/13 10:01:57;;;;;;;90.90;40.55;;;;;;;0.32;90.17;100161.39;1771000;80;21183;-67
2020/12/13 10:04:25;;;;;;;98.45;41.95;;;;;;;0.32;90.11;100156.22;1765023;79;21200;-67
2020/12/13 10:09:42;;;;;;;102.53;44.00;;;;;;;0.28;90.23;100151.90;1771053;79;21361;-67
2020/12/13 10:12:10;;;;;;;;;;;;;;;0.28;90.35;100154.49;1784402;78;21458;-67
2020/12/13 10:14:41;;;;;;;90.28;36.28;;;;;;;0.28;90.31;100150.61;1778934;79;20227;-65
2020/12/13 10:17:11;;;;;;;101.53;43.68;;;;;;;0.23;90.40;100156.16;1770403;79;29119;-67
2020/12/13 10:19:38;;;;;;;94.87;39.95;;;;;;;0.20;90.57;100150.11;1771635;80;21594;-67
2020/12/13 10:22:07;;;;;;;102.30;42.83;;;;;;;0.20;90.60;100146.66;1772045;80;21377;-69
2020/12/13 10:24:36;;;;;;;92.67;40.60;;;;;;;0.22;90.55;100144.95;1771522;80;21139;-68
2020/12/13 10:27:03;;;;;;;88.30;39.20;;;;;;;0.23;90.56;100140.62;1770404;79;21139;-69
2020/12/13 10:29:47;;;;;;;83.10;37.40;;;;;;;0.28;90.56;100142.83;1803833;77;22802;-66
2020/12/13 10:32:16;;;;;;;82.17;35.98;;;;;;;0.20;90.57;100142.34;1757699;81;21147;-69
2020/12/13 10:34:44;;;;;;;80.50;34.48;;;;;;;0.19;90.52;100140.62;1757238;81;21431;-68
2020/12/13 10:37:14;;;;;;;81.02;36.20;;;;;;;0.24;90.46;100144.97;1744562;81;21219;-69
2020/12/13 10:39:45;;;;;;;100.00;40.83;;;;;;;0.24;90.38;100134.61;1752776;81;21233;-69
2020/12/13 10:42:13;;;;;;;85.42;37.63;;;;;;;0.25;90.42;100136.32;1755127;81;21139;-69
2020/12/13 10:44:41;;;;;;;74.65;33.42;;;;;;;0.24;90.41;100132.02;1772013;80;21582;-69
2020/12/13 10:47:09;;;;;;;73.55;34.38;;;;;;;0.25;90.37;100133.30;1791585;80;22349;-68
2020/12/13 10:49:40;;;;;;;73.70;29.87;;;;;;;0.27;90.35;100132.88;1791561;80;21191;-69
2020/12/13 10:52:07;;;;;;;79.37;36.55;;;;;;;0.28;90.36;100126.00;1792367;80;21218;-68
2020/12/13 10:54:35;;;;;;;69.65;30.92;;;;;;;0.27;90.31;100129.43;1792345;80;21198;-68
2020/12/13 10:57:05;;;;;;;71.02;29.42;;;;;;;0.27;90.26;100130.72;1792130;80;21170;-67
2020/12/13 10:59:33;;;;;;;68.80;31.23;;;;;;;0.30;90.17;100141.09;1787561;80;22271;-67
2020/12/13 11:02:01;;;;;;;85.00;35.75;;;;;;;0.28;90.16;100134.63;1780294;80;21169;-68
2020/12/13 11:04:29;;;;;;;72.80;33.70;;;;;;;0.28;90.21;100135.06;1790342;80;21151;-67
2020/12/13 11:06:58;;;;;;;62.03;27.87;;;;;;;0.30;90.21;100139.80;1772032;80;21169;-67
2020/12/13 11:09:26;;;;;;;63.35;29.45;;;;;;;0.31;90.12;100141.55;1752283;80;21584;-67
2020/12/13 11:11:53;;;;;;;68.78;30.05;;;;;;;0.30;90.14;100138.09;1773687;80;21363;-67
2020/12/13 11:14:21;;;;;;;56.40;26.77;;;;;;;0.28;90.11;100142.40;1774083;80;21206;-68
2020/12/13 11:16:49;;;;;;;50.83;23.45;;;;;;;0.28;90.13;100144.12;1773956;80;21129;-67
2020/12/13 11:19:17;;;;;;;52.78;25.10;;;;;;;0.28;90.11;100144.12;1780654;80;21630;-68
2020/12/13 11:21:46;;;;;;;63.38;30.30;;;;;;;0.27;90.07;100138.05;1785372;80;21223;-67
2020/12/13 11:24:14;;;;;;;63.55;30.50;;;;;;;0.28;90.21;100133.77;1793275;80;21308;-66
2020/12/13 11:26:47;;;;;;;45.70;23.98;;;;;;;0.27;90.24;100143.23;1793023;80;21167;-67
2020/12/13 11:29:15;;;;;;;51.30;25.85;;;;;;;0.29;90.14;100145.84;1787622;80;21163;-67
2020/12/13 11:31:44;;;;;;;57.50;26.33;;;;;;;0.30;90.12;100143.28;1763247;76;21231;-67
2020/12/13 11:34:12;;;;;;;61.75;28.05;;;;;;;0.27;90.15;100139.79;1774541;80;21135;-66
2020/12/13 11:36:42;;;;;;;47.27;23.10;;;;;;;0.27;90.16;100147.56;1779038;80;21383;-67
2020/12/13 11:39:11;;;;;;;52.23;25.48;;;;;;;0.27;90.10;100141.08;1785456;80;21649;-67
2020/12/13 11:41:38;;;;;;;48.98;25.62;;;;;;;0.29;90.03;100141.52;1796365;79;22185;-67
2020/12/13 11:44:10;;;;;;;58.48;26.57;;;;;;;0.30;90.05;100144.97;1777542;78;21163;-68